createdAt,value
2023-05-09T00:02:25.052Z,16.47
2023-05-09T00:04:54.509Z,16.50
2023-05-09T00:07:22.543Z,16.48
2023-05-09T00:09:50.692Z,16.49
2023-05-09T00:12:18.799Z,16.52
2023-05-09T00:14:48.166Z,16.55
2023-05-09T00:17:17.030Z,16.55
2023-05-09T00:19:45.363Z,16.54
2023-05-09T00:22:14.701Z,16.54
2023-05-09T00:24:42.858Z,16.51
2023-05-09T00:27:10.980Z,16.48
2023-05-09T00:29:39.288Z,16.49
2023-05-09T00:32:07.367Z,16.49
2023-05-09T00:34:35.501Z,16.51
2023-05-09T00:37:04.263Z,16.54
2023-05-09T00:39:33.694Z,16.55
2023-05-09T00:42:01.658Z,16.52
2023-05-09T00:44:29.736Z,16.57
2023-05-09T00:46:57.902Z,16.58
2023-05-09T00:49:25.982Z,16.60
2023-05-09T00:51:55.400Z,16.60
2023-05-09T00:54:23.499Z,16.61
2023-05-09T00:56:53.191Z,16.65
2023-05-09T00:59:21.932Z,16.66
2023-05-09T01:01:50.366Z,16.66
2023-05-09T01:04:18.743Z,16.66
2023-05-09T01:06:58.908Z,16.71
2023-05-09T01:09:44.496Z,16.67
2023-05-09T01:12:27.236Z,16.66
2023-05-09T01:15:04.784Z,16.64
2023-05-09T01:17:47.516Z,16.66
2023-05-09T01:20:24.497Z,16.65
2023-05-09T01:23:02.331Z,16.69
2023-05-09T01:25:48.707Z,16.67
2023-05-09T01:28:36.694Z,16.61
2023-05-09T01:31:09.209Z,16.66
2023-05-09T01:33:41.776Z,16.66
2023-05-09T01:36:17.104Z,16.67
2023-05-09T01:38:49.594Z,16.67
2023-05-09T01:41:20.788Z,16.69
2023-05-09T01:43:51.133Z,16.70
2023-05-09T01:46:23.692Z,16.75
2023-05-09T01:48:53.193Z,16.73
2023-05-09T01:51:22.334Z,16.70
2023-05-09T01:53:53.180Z,16.69
2023-05-09T01:56:23.296Z,16.70
2023-05-09T01:58:53.038Z,16.73
2023-05-09T02:01:23.929Z,16.75
2023-05-09T02:03:54.358Z,16.72
2023-05-09T02:06:25.296Z,16.73
2023-05-09T02:08:53.395Z,16.68
2023-05-09T02:11:21.399Z,16.68
2023-05-09T02:13:51.616Z,16.66
2023-05-09T02:16:27.848Z,16.69
2023-05-09T02:18:55.868Z,16.65
2023-05-09T02:21:23.996Z,16.66
2023-05-09T02:23:52.131Z,16.69
2023-05-09T02:26:20.982Z,16.65
2023-05-09T02:28:49.701Z,16.64
2023-05-09T02:31:22.649Z,16.67
2023-05-09T02:33:53.199Z,16.67
2023-05-09T02:36:22.026Z,16.67
2023-05-09T02:38:50.600Z,16.65
2023-05-09T02:41:18.652Z,16.65
2023-05-09T02:43:47.286Z,16.60
2023-05-09T02:46:16.956Z,16.65
2023-05-09T02:48:44.990Z,16.64
2023-05-09T02:51:14.416Z,16.63
2023-05-09T02:53:42.386Z,16.64
2023-05-09T02:56:10.910Z,16.63
2023-05-09T02:58:39.052Z,16.61
2023-05-09T03:01:07.191Z,16.63
2023-05-09T03:03:35.405Z,16.64
2023-05-09T03:06:06.300Z,16.65
2023-05-09T03:08:35.862Z,16.61
2023-05-09T03:11:04.462Z,16.60
2023-05-09T03:13:32.758Z,16.58
2023-05-09T03:16:00.776Z,16.58
2023-05-09T03:18:28.920Z,16.60
2023-05-09T03:20:56.966Z,16.57
2023-05-09T03:23:25.551Z,16.54
2023-05-09T03:25:55.384Z,16.52
2023-05-09T03:28:23.658Z,16.53
2023-05-09T03:30:51.807Z,16.56
2023-05-09T03:33:23.207Z,16.56
2023-05-09T03:35:51.552Z,16.53
2023-05-09T03:38:19.637Z,16.47
2023-05-09T03:40:47.653Z,16.48
2023-05-09T03:43:17.129Z,16.49
2023-05-09T03:45:45.395Z,16.45
2023-05-09T03:48:15.178Z,16.45
2023-05-09T03:50:48.296Z,16.42
2023-05-09T03:53:16.953Z,16.43
2023-05-09T03:55:47.152Z,16.43
2023-05-09T03:58:19.274Z,16.43
2023-05-09T04:00:47.527Z,16.42
2023-05-09T04:03:21.973Z,16.41
2023-05-09T04:05:52.225Z,16.42
2023-05-09T04:08:37.035Z,16.38
2023-05-09T04:11:06.214Z,16.40
2023-05-09T04:13:36.554Z,16.44
2023-05-09T04:16:11.050Z,16.48
2023-05-09T04:18:42.214Z,16.51
2023-05-09T04:21:10.672Z,16.57
2023-05-09T04:23:39.869Z,16.62
2023-05-09T04:26:09.653Z,16.60
2023-05-09T04:28:39.083Z,16.61
2023-05-09T04:31:08.136Z,16.66
2023-05-09T04:33:38.274Z,16.65
2023-05-09T04:36:07.823Z,16.65
2023-05-09T04:38:35.943Z,16.62
2023-05-09T04:41:07.130Z,16.64
2023-05-09T04:43:35.514Z,16.64
2023-05-09T04:46:05.110Z,16.65
2023-05-09T04:48:35.334Z,16.65
2023-05-09T04:51:03.581Z,16.67
2023-05-09T04:53:31.892Z,16.69
2023-05-09T04:56:00.344Z,16.70
2023-05-09T04:58:53.249Z,16.68
2023-05-09T05:01:27.897Z,16.68
2023-05-09T05:03:57.000Z,16.69
2023-05-09T05:06:26.241Z,16.69
2023-05-09T05:08:54.395Z,16.70
2023-05-09T05:11:22.479Z,16.71
2023-05-09T05:13:50.991Z,16.78
2023-05-09T05:16:19.086Z,16.78
2023-05-09T05:18:49.697Z,16.80
2023-05-09T05:21:18.949Z,16.77
2023-05-09T05:23:47.162Z,16.80
2023-05-09T05:26:16.316Z,16.82
2023-05-09T05:28:44.413Z,16.85
2023-05-09T05:31:13.840Z,16.86
2023-05-09T05:33:42.051Z,16.85
2023-05-09T05:36:13.320Z,16.87
2023-05-09T05:38:41.372Z,16.92
2023-05-09T05:44:06.597Z,16.94
2023-05-09T05:46:36.039Z,16.93
2023-05-09T05:49:04.289Z,16.98
2023-05-09T05:51:33.761Z,16.99
2023-05-09T05:54:02.670Z,16.98
2023-05-09T05:56:31.698Z,17.03
2023-05-09T05:58:59.919Z,17.03
2023-05-09T06:01:28.078Z,17.04
2023-05-09T06:03:56.232Z,17.13
2023-05-09T06:06:28.489Z,17.19
2023-05-09T06:08:58.336Z,17.17
2023-05-09T06:11:26.463Z,17.17
2023-05-09T06:13:54.512Z,17.17
2023-05-09T06:16:22.816Z,17.12
2023-05-09T06:18:53.440Z,17.16
2023-05-09T06:21:23.698Z,17.14
2023-05-09T06:24:07.874Z,17.22
2023-05-09T06:26:40.557Z,17.22
2023-05-09T06:29:08.709Z,17.27
2023-05-09T06:31:38.545Z,17.25
2023-05-09T06:34:07.284Z,17.25
2023-05-09T06:36:35.477Z,17.26
2023-05-09T06:39:03.544Z,17.28
2023-05-09T06:41:31.592Z,17.32
2023-05-09T06:44:02.392Z,17.33
2023-05-09T06:46:30.692Z,17.35
2023-05-09T06:49:01.613Z,17.36
2023-05-09T06:51:29.850Z,17.40
2023-05-09T06:53:58.070Z,17.44
2023-05-09T06:56:26.920Z,17.50
2023-05-09T06:58:55.076Z,17.47
2023-05-09T07:01:24.442Z,17.55
2023-05-09T07:03:53.595Z,17.63
2023-05-09T07:06:21.819Z,17.72
2023-05-09T07:08:49.807Z,17.76
2023-05-09T07:11:17.863Z,17.69
2023-05-09T07:13:46.697Z,17.68
2023-05-09T07:16:14.760Z,17.73
2023-05-09T07:18:44.175Z,17.74
2023-05-09T07:24:04.873Z,17.82
2023-05-09T07:26:32.887Z,17.89
2023-05-09T07:29:00.884Z,17.91
2023-05-09T07:31:29.383Z,17.94
2023-05-09T07:33:59.140Z,17.97
2023-05-09T07:36:27.161Z,18.03
2023-05-09T07:38:55.442Z,18.14
2023-05-09T07:41:23.561Z,18.20
2023-05-09T07:43:51.529Z,18.27
2023-05-09T07:46:19.561Z,18.38
2023-05-09T07:48:47.610Z,18.43
2023-05-09T07:51:16.915Z,18.49
2023-05-09T07:53:44.929Z,18.53
2023-05-09T07:56:13.406Z,18.56
2023-05-09T07:58:41.704Z,18.59
2023-05-09T08:01:09.743Z,18.61
2023-05-09T08:03:38.005Z,18.68
2023-05-09T08:06:06.309Z,18.72
2023-05-09T08:08:38.279Z,18.76
2023-05-09T08:11:07.211Z,18.77
2023-05-09T08:13:35.235Z,18.82
2023-05-09T08:16:03.547Z,18.84
2023-05-09T08:18:31.751Z,18.83
2023-05-09T08:20:59.956Z,18.86
2023-05-09T08:23:30.054Z,18.91
2023-05-09T08:25:59.557Z,18.96
2023-05-09T08:28:28.771Z,18.96
2023-05-09T08:30:58.066Z,18.99
2023-05-09T08:33:26.387Z,18.98
2023-05-09T08:35:54.877Z,18.98
2023-05-09T08:38:24.245Z,18.99
2023-05-09T08:40:52.289Z,18.99
2023-05-09T08:43:24.360Z,19.01
2023-05-09T08:45:55.698Z,19.01
2023-05-09T08:48:24.269Z,19.04
2023-05-09T08:50:52.979Z,19.05
2023-05-09T08:53:22.477Z,19.11
2023-05-09T08:55:50.940Z,19.16
2023-05-09T08:58:22.757Z,19.27
2023-05-09T09:00:51.436Z,19.30
2023-05-09T09:03:19.490Z,19.37
2023-05-09T09:05:49.189Z,19.49
2023-05-09T09:08:18.965Z,19.63
2023-05-09T09:10:48.304Z,19.73
2023-05-09T09:13:18.183Z,19.84
2023-05-09T09:15:51.508Z,19.98
2023-05-09T09:18:29.273Z,20.06
2023-05-09T09:21:27.872Z,20.19
2023-05-09T09:23:56.887Z,20.32
2023-05-09T09:26:29.115Z,20.48
2023-05-09T09:28:57.785Z,20.52
2023-05-09T09:31:33.303Z,20.56
2023-05-09T09:34:02.497Z,20.64
2023-05-09T09:36:32.957Z,20.77
2023-05-09T09:39:04.693Z,20.87
2023-05-09T09:41:33.859Z,20.90
2023-05-09T09:44:08.693Z,20.90
2023-05-09T09:46:46.132Z,20.85
2023-05-09T09:49:16.187Z,20.85
2023-05-09T09:51:45.223Z,20.82
2023-05-09T09:54:14.164Z,20.80
2023-05-09T09:56:45.070Z,20.76
2023-05-09T10:02:07.670Z,20.68
2023-05-09T10:04:39.065Z,20.69
2023-05-09T10:07:14.370Z,20.66
2023-05-09T10:09:43.908Z,20.60
2023-05-09T10:12:14.553Z,20.57
2023-05-09T10:14:44.375Z,20.57
2023-05-09T10:17:17.331Z,20.52
2023-05-09T10:19:48.052Z,20.50
2023-05-09T10:22:17.805Z,20.50
2023-05-09T10:24:52.519Z,20.50
2023-05-09T10:27:27.453Z,20.48
2023-05-09T10:30:04.836Z,20.50
2023-05-09T10:32:49.298Z,20.65
2023-05-09T10:35:20.377Z,20.75
2023-05-09T10:37:49.503Z,20.89
2023-05-09T10:40:19.818Z,20.93
2023-05-09T10:42:49.352Z,21.02
2023-05-09T10:45:17.627Z,21.10
2023-05-09T10:47:50.726Z,21.25
2023-05-09T10:50:19.551Z,21.30
2023-05-09T10:53:14.259Z,21.39
2023-05-09T10:55:52.202Z,21.50
2023-05-09T10:58:23.350Z,21.62
2023-05-09T11:00:54.654Z,21.71
2023-05-09T11:03:25.859Z,21.78
2023-05-09T11:05:56.191Z,21.82
2023-05-09T11:08:27.021Z,21.87
2023-05-09T11:10:56.701Z,21.86
2023-05-09T11:13:27.331Z,21.92
2023-05-09T11:16:12.358Z,21.99
2023-05-09T11:18:54.520Z,22.05
2023-05-09T11:21:22.814Z,22.08
2023-05-09T11:23:53.814Z,22.16
2023-05-09T11:26:29.644Z,22.23
2023-05-09T11:29:02.676Z,22.30
2023-05-09T11:31:30.867Z,22.26
2023-05-09T11:34:06.386Z,22.33
2023-05-09T11:36:34.803Z,22.29
2023-05-09T11:39:08.481Z,22.32
2023-05-09T11:41:46.672Z,22.38
2023-05-09T11:44:21.312Z,22.34
2023-05-09T11:46:51.072Z,22.36
2023-05-09T11:49:20.888Z,22.37
2023-05-09T11:51:49.125Z,22.37
2023-05-09T11:54:17.313Z,22.34
2023-05-09T11:56:46.411Z,22.28
2023-05-09T11:59:15.840Z,22.27
2023-05-09T12:01:43.977Z,22.27
2023-05-09T12:04:12.206Z,22.24
2023-05-09T12:06:41.753Z,22.28
2023-05-09T12:09:11.181Z,22.21
2023-05-09T12:11:40.278Z,22.17
2023-05-09T12:14:08.340Z,22.09
2023-05-09T12:16:36.423Z,22.14
2023-05-09T12:19:05.440Z,22.09
2023-05-09T12:21:33.584Z,22.13
2023-05-09T12:24:06.316Z,22.17
2023-05-09T12:26:35.143Z,22.13
2023-05-09T12:29:05.654Z,22.22
2023-05-09T12:31:33.856Z,22.26
2023-05-09T12:34:02.766Z,22.27
2023-05-09T12:36:36.973Z,22.24
2023-05-09T12:39:15.473Z,22.22
2023-05-09T12:41:57.894Z,22.19
2023-05-09T12:44:30.029Z,22.12
2023-05-09T12:47:00.766Z,22.09
2023-05-09T12:49:30.361Z,22.06
2023-05-09T12:52:02.968Z,22.04
2023-05-09T12:54:33.979Z,22.01
2023-05-09T12:57:04.383Z,22.02
2023-05-09T12:59:33.320Z,21.99
2023-05-09T13:02:02.113Z,21.98
2023-05-09T13:04:30.348Z,21.99
2023-05-09T13:06:59.956Z,21.98
2023-05-09T13:09:28.585Z,21.93
2023-05-09T13:11:57.925Z,21.97
2023-05-09T13:14:26.348Z,21.97
2023-05-09T13:16:55.011Z,21.98
2023-05-09T13:19:23.034Z,21.98
2023-05-09T13:21:52.293Z,22.02
2023-05-09T13:24:20.418Z,22.04
2023-05-09T13:26:48.413Z,22.06
2023-05-09T13:29:17.934Z,22.05
2023-05-09T13:31:46.109Z,22.03
2023-05-09T13:34:14.251Z,22.12
2023-05-09T13:36:42.229Z,22.06
2023-05-09T13:39:10.306Z,22.08
2023-05-09T13:41:38.430Z,22.10
2023-05-09T13:44:06.454Z,22.10
2023-05-09T13:46:36.020Z,22.08
2023-05-09T13:49:04.372Z,22.14
2023-05-09T13:51:32.598Z,22.13
2023-05-09T13:54:00.722Z,22.16
2023-05-09T13:56:28.774Z,22.16
2023-05-09T13:58:56.950Z,22.18
2023-05-09T14:01:25.388Z,22.27
2023-05-09T14:03:54.770Z,22.28
2023-05-09T14:06:22.801Z,22.29
2023-05-09T14:08:50.880Z,22.38
2023-05-09T14:11:18.940Z,22.33
2023-05-09T14:13:47.179Z,22.32
2023-05-09T14:16:15.286Z,22.29
2023-05-09T14:18:43.372Z,22.29
2023-05-09T14:21:12.963Z,22.31
2023-05-09T14:23:41.213Z,22.34
2023-05-09T14:26:09.332Z,22.32
2023-05-09T14:28:38.187Z,22.34
2023-05-09T14:31:06.295Z,22.29
2023-05-09T14:33:36.016Z,22.26
2023-05-09T14:36:06.025Z,22.20
2023-05-09T14:38:37.140Z,22.24
2023-05-09T14:41:06.840Z,22.22
2023-05-09T14:43:34.954Z,22.15
2023-05-09T14:46:06.572Z,22.17
2023-05-09T14:48:34.758Z,22.15
2023-05-09T14:51:03.161Z,22.17
2023-05-09T14:53:40.976Z,22.16
2023-05-09T14:56:11.282Z,22.08
2023-05-09T14:58:39.561Z,22.07
2023-05-09T15:01:07.636Z,22.02
2023-05-09T15:03:35.715Z,21.96
2023-05-09T15:06:03.887Z,21.88
2023-05-09T15:08:32.005Z,21.85
2023-05-09T15:11:01.320Z,21.80
2023-05-09T15:13:29.537Z,21.75
2023-05-09T15:15:57.712Z,21.74
2023-05-09T15:18:28.478Z,21.70
2023-05-09T15:20:56.852Z,21.68
2023-05-09T15:23:24.941Z,21.64
2023-05-09T15:25:52.971Z,21.59
2023-05-09T15:28:22.419Z,21.58
2023-05-09T15:30:50.551Z,21.51
2023-05-09T15:33:18.645Z,21.48
2023-05-09T15:35:46.852Z,21.50
2023-05-09T15:38:15.379Z,21.44
2023-05-09T15:40:43.545Z,21.44
2023-05-09T15:43:12.901Z,21.42
2023-05-09T15:45:45.545Z,21.40
2023-05-09T15:48:14.021Z,21.38
2023-05-09T15:50:43.301Z,21.36
2023-05-09T15:53:11.791Z,21.32
2023-05-09T15:55:40.061Z,21.32
2023-05-09T15:58:08.535Z,21.28
2023-05-09T16:00:36.771Z,21.30
2023-05-09T16:03:06.608Z,21.29
2023-05-09T16:05:34.770Z,21.27
2023-05-09T16:08:02.937Z,21.26
2023-05-09T16:10:31.577Z,21.24
2023-05-09T16:12:59.755Z,21.24
2023-05-09T16:15:27.851Z,21.23
2023-05-09T16:17:55.868Z,21.20
2023-05-09T16:20:25.264Z,21.20
2023-05-09T16:22:53.324Z,21.19
2023-05-09T16:25:21.438Z,21.17
2023-05-09T16:27:49.550Z,21.15
2023-05-09T16:30:17.998Z,21.13
2023-05-09T16:32:46.684Z,21.12
2023-05-09T16:35:14.837Z,21.10
2023-05-09T16:37:44.361Z,21.09
2023-05-09T16:40:15.008Z,21.09
2023-05-09T16:42:43.250Z,21.07
2023-05-09T16:45:12.018Z,21.04
2023-05-09T16:47:40.059Z,21.02
2023-05-09T16:50:10.470Z,21.01
2023-05-09T16:52:38.748Z,20.96
2023-05-09T16:55:09.550Z,20.94
2023-05-09T16:57:37.602Z,20.87
2023-05-09T17:00:08.060Z,20.82
2023-05-09T17:02:37.083Z,20.82
2023-05-09T17:05:05.901Z,20.80
2023-05-09T17:07:34.055Z,20.78
2023-05-09T17:10:03.447Z,20.76
2023-05-09T17:12:32.881Z,20.68
2023-05-09T17:15:01.057Z,20.50
2023-05-09T17:17:29.132Z,20.43
2023-05-09T17:19:57.666Z,20.39
2023-05-09T17:22:26.778Z,20.31
2023-05-09T17:24:54.904Z,20.17
2023-05-09T17:27:23.024Z,20.13
2023-05-09T17:29:52.423Z,20.11
2023-05-09T17:32:20.558Z,19.98
2023-05-09T17:34:48.590Z,19.96
2023-05-09T17:37:16.948Z,19.88
2023-05-09T17:39:45.127Z,19.72
2023-05-09T17:42:13.248Z,19.61
2023-05-09T17:44:42.510Z,19.57
2023-05-09T17:47:14.261Z,19.48
2023-05-09T17:49:42.635Z,19.43
2023-05-09T17:52:10.638Z,19.44
2023-05-09T17:54:38.663Z,19.32
2023-05-09T17:57:06.795Z,19.33
2023-05-09T17:59:34.823Z,19.28
2023-05-09T18:02:03.027Z,19.25
2023-05-09T18:04:34.228Z,19.24
2023-05-09T18:07:02.553Z,19.19
2023-05-09T18:09:30.960Z,19.20
2023-05-09T18:11:59.393Z,19.14
2023-05-09T18:14:28.394Z,19.11
2023-05-09T18:16:57.349Z,19.13
2023-05-09T18:19:25.387Z,19.09
2023-05-09T18:21:54.710Z,19.01
2023-05-09T18:24:23.199Z,19.01
2023-05-09T18:26:51.330Z,19.00
2023-05-09T18:29:19.556Z,19.00
2023-05-09T18:31:47.808Z,19.01
2023-05-09T18:34:15.886Z,19.05
2023-05-09T18:36:43.881Z,18.93
2023-05-09T18:39:15.045Z,18.91
2023-05-09T18:41:43.476Z,18.87
2023-05-09T18:44:13.265Z,18.87
2023-05-09T18:46:41.541Z,18.87
2023-05-09T18:49:09.740Z,18.88
2023-05-09T18:51:37.824Z,18.84
2023-05-09T18:54:08.098Z,18.86
2023-05-09T18:56:39.357Z,18.78
2023-05-09T18:59:09.326Z,18.74
2023-05-09T19:01:37.872Z,18.72
2023-05-09T19:04:06.981Z,18.70
2023-05-09T19:06:35.192Z,18.67
2023-05-09T19:09:04.257Z,18.68
2023-05-09T19:11:32.358Z,18.61
2023-05-09T19:14:02.108Z,18.62
2023-05-09T19:16:30.443Z,18.63
2023-05-09T19:19:00.281Z,18.62
2023-05-09T19:21:28.997Z,18.61
2023-05-09T19:23:57.129Z,18.59
2023-05-09T19:26:25.164Z,18.53
2023-05-09T19:28:53.652Z,18.54
2023-05-09T19:31:25.390Z,18.51
2023-05-09T19:33:53.619Z,18.54
2023-05-09T19:36:21.598Z,18.50
2023-05-09T19:38:49.668Z,18.48
2023-05-09T19:41:17.993Z,18.49
2023-05-09T19:43:46.525Z,18.44
2023-05-09T19:46:14.579Z,18.40
2023-05-09T19:48:44.034Z,18.42
2023-05-09T19:51:14.054Z,18.43
2023-05-09T19:53:42.091Z,18.39
2023-05-09T19:56:10.307Z,18.37
2023-05-09T19:58:38.468Z,18.40
2023-05-09T20:01:07.163Z,18.37
2023-05-09T20:03:36.951Z,18.40
2023-05-09T20:06:07.674Z,18.36
2023-05-09T20:08:35.780Z,18.31
2023-05-09T20:11:29.021Z,18.27
2023-05-09T20:13:57.636Z,18.27
2023-05-09T20:16:25.790Z,18.26
2023-05-09T20:18:55.167Z,18.23
2023-05-09T20:21:26.987Z,18.25
2023-05-09T20:23:55.029Z,18.25
2023-05-09T20:26:25.089Z,18.28
2023-05-09T20:28:54.437Z,18.27
2023-05-09T20:31:22.488Z,18.27
2023-05-09T20:33:51.410Z,18.24
2023-05-09T20:36:20.284Z,18.24
2023-05-09T20:38:49.666Z,18.21
2023-05-09T20:41:17.734Z,18.23
2023-05-09T20:43:45.794Z,18.18
2023-05-09T20:46:14.403Z,18.15
2023-05-09T20:48:42.645Z,18.13
2023-05-09T20:51:10.788Z,18.15
2023-05-09T20:53:38.819Z,18.07
2023-05-09T20:56:08.482Z,18.06
2023-05-09T20:58:36.481Z,18.06
2023-05-09T21:01:04.681Z,17.99
2023-05-09T21:03:32.691Z,17.95
2023-05-09T21:06:00.667Z,17.93
2023-05-09T21:08:28.810Z,17.90
2023-05-09T21:10:57.010Z,17.87
2023-05-09T21:13:26.530Z,17.82
2023-05-09T21:15:54.622Z,17.76
2023-05-09T21:18:22.610Z,17.73
2023-05-09T21:20:50.835Z,17.78
2023-05-09T21:23:19.380Z,17.72
2023-05-09T21:25:47.364Z,17.68
2023-05-09T21:28:15.845Z,17.64
2023-05-09T21:30:45.226Z,17.62
2023-05-09T21:33:13.255Z,17.66
2023-05-09T21:35:41.286Z,17.63
2023-05-09T21:38:09.565Z,17.63
2023-05-09T21:40:37.708Z,17.60
2023-05-09T21:43:05.775Z,17.63
2023-05-09T21:45:34.256Z,17.64
2023-05-09T21:48:03.774Z,17.63
2023-05-09T21:50:31.809Z,17.59
2023-05-09T21:53:00.395Z,17.60
2023-05-09T21:55:29.264Z,17.55
2023-05-09T21:57:57.206Z,17.58
2023-05-09T22:00:25.491Z,17.55
2023-05-09T22:02:53.631Z,17.57
2023-05-09T22:05:24.222Z,17.58
2023-05-09T22:07:52.581Z,17.56
2023-05-09T22:10:20.819Z,17.55
2023-05-09T22:12:48.900Z,17.50
2023-05-09T22:15:17.107Z,17.52
2023-05-09T22:17:45.187Z,17.51
2023-05-09T22:20:13.863Z,17.52
2023-05-09T22:22:43.370Z,17.52
2023-05-09T22:25:11.724Z,17.51
2023-05-09T22:27:39.809Z,17.48
2023-05-09T22:30:12.143Z,17.47
2023-05-09T22:32:40.381Z,17.43
2023-05-09T22:35:09.707Z,17.46
2023-05-09T22:37:37.867Z,17.47
2023-05-09T22:40:09.397Z,17.43
2023-05-09T22:42:37.676Z,17.39
2023-05-09T22:45:07.335Z,17.39
2023-05-09T22:47:35.443Z,17.35
2023-05-09T22:50:04.007Z,17.32
2023-05-09T22:52:32.076Z,17.32
2023-05-09T22:55:00.205Z,17.35
2023-05-09T22:57:29.637Z,17.33
2023-05-09T22:59:57.678Z,17.34
2023-05-09T23:02:26.665Z,17.37
2023-05-09T23:04:54.677Z,17.33
2023-05-09T23:07:22.677Z,17.30
2023-05-09T23:09:50.675Z,17.32
2023-05-09T23:12:18.812Z,17.30
2023-05-09T23:14:48.276Z,17.30
2023-05-09T23:17:16.347Z,17.25
2023-05-09T23:19:44.507Z,17.24
2023-05-09T23:22:12.734Z,17.26
2023-05-09T23:24:41.223Z,17.28
2023-05-09T23:27:09.442Z,17.23
2023-05-09T23:29:37.410Z,17.20
2023-05-09T23:32:06.889Z,17.17
2023-05-09T23:34:36.294Z,17.14
2023-05-09T23:37:04.618Z,17.04
2023-05-09T23:39:32.924Z,17.04
2023-05-09T23:42:00.898Z,17.03
2023-05-09T23:44:29.018Z,17.05
2023-05-09T23:46:57.358Z,17.00
2023-05-09T23:49:27.175Z,16.93
2023-05-09T23:51:55.339Z,16.86
2023-05-09T23:54:24.311Z,16.83
2023-05-09T23:56:52.318Z,16.82
2023-05-09T23:59:20.365Z,16.81
